createdAt,value
2022-10-01T00:01:18.713Z,95.20
2022-10-01T00:06:22.297Z,95.20
2022-10-01T00:11:26.436Z,95.50
2022-10-01T00:16:30.666Z,95.10
2022-10-01T00:21:33.442Z,95.10
2022-10-01T00:26:37.793Z,95.10
2022-10-01T00:31:40.362Z,95.10
2022-10-01T00:36:43.039Z,95.00
2022-10-01T00:41:45.430Z,94.90
2022-10-01T00:46:48.044Z,94.80
2022-10-01T00:51:56.968Z,94.80
2022-10-01T00:57:01.628Z,94.60
2022-10-01T01:02:04.157Z,94.50
2022-10-01T01:07:07.252Z,94.40
2022-10-01T01:12:18.022Z,94.30
2022-10-01T01:17:29.739Z,94.60
2022-10-01T01:22:36.330Z,94.60
2022-10-01T01:27:45.399Z,94.60
2022-10-01T01:32:53.005Z,94.60
2022-10-01T01:38:03.316Z,94.60
2022-10-01T01:43:11.077Z,94.50
2022-10-01T01:48:15.508Z,94.60
2022-10-01T01:53:19.609Z,94.60
2022-10-01T01:58:22.339Z,94.50
2022-10-01T02:03:26.807Z,94.70
2022-10-01T02:08:41.861Z,94.70
2022-10-01T02:13:50.506Z,94.70
2022-10-01T02:19:00.610Z,94.80
2022-10-01T02:24:26.059Z,94.90
2022-10-01T02:29:29.553Z,94.80
2022-10-01T02:34:32.856Z,94.80
2022-10-01T02:39:37.630Z,94.80
2022-10-01T02:44:42.628Z,94.80
2022-10-01T02:49:45.121Z,94.80
2022-10-01T02:54:56.034Z,94.70
2022-10-01T03:00:01.243Z,94.80
2022-10-01T03:05:04.619Z,94.70
2022-10-01T03:10:08.996Z,94.70
2022-10-01T03:15:13.366Z,94.60
2022-10-01T03:20:15.962Z,94.70
2022-10-01T03:25:18.475Z,94.70
2022-10-01T03:30:21.619Z,94.80
2022-10-01T03:35:24.983Z,94.60
2022-10-01T03:40:27.310Z,94.60
2022-10-01T03:45:29.729Z,94.50
2022-10-01T03:50:32.177Z,94.50
2022-10-01T03:55:34.564Z,94.40
2022-10-01T04:00:36.839Z,94.40
2022-10-01T04:05:39.504Z,94.40
2022-10-01T04:10:42.528Z,94.40
2022-10-01T04:15:45.015Z,94.40
2022-10-01T04:20:48.070Z,94.50
2022-10-01T04:25:50.894Z,94.40
2022-10-01T04:31:13.381Z,94.40
2022-10-01T04:36:15.813Z,94.40
2022-10-01T04:41:18.309Z,94.50
2022-10-01T04:46:20.817Z,94.40
2022-10-01T04:51:23.249Z,94.40
2022-10-01T04:56:27.135Z,94.30
2022-10-01T05:01:31.177Z,94.30
2022-10-01T05:06:33.727Z,94.30
2022-10-01T05:11:36.801Z,94.20
2022-10-01T05:16:39.807Z,94.20
2022-10-01T05:21:43.208Z,94.10
2022-10-01T05:26:45.864Z,94.10
2022-10-01T05:31:48.445Z,94.00
2022-10-01T05:36:50.821Z,94.00
2022-10-01T05:41:55.452Z,93.90
2022-10-01T05:46:57.835Z,93.90
2022-10-01T05:52:01.129Z,93.90
2022-10-01T05:57:05.229Z,93.80
2022-10-01T06:02:10.207Z,93.90
2022-10-01T06:07:13.327Z,93.90
2022-10-01T06:12:19.836Z,93.80
2022-10-01T06:17:22.466Z,93.90
2022-10-01T06:22:24.793Z,94.00
2022-10-01T06:27:27.135Z,94.00
2022-10-01T06:32:32.818Z,94.00
2022-10-01T06:37:38.513Z,94.10
2022-10-01T06:42:47.894Z,94.10
2022-10-01T06:47:58.677Z,94.10
2022-10-01T06:53:02.176Z,94.10
2022-10-01T06:58:12.867Z,94.20
2022-10-01T07:03:18.755Z,94.30
2022-10-01T07:08:22.554Z,94.30
2022-10-01T07:13:24.944Z,94.40
2022-10-01T07:18:27.326Z,94.40
2022-10-01T07:23:29.725Z,94.40
2022-10-01T07:28:32.313Z,94.40
2022-10-01T07:33:34.722Z,94.30
2022-10-01T07:38:37.152Z,94.20
2022-10-01T07:43:41.775Z,94.20
2022-10-01T07:48:50.643Z,94.20
2022-10-01T07:53:53.162Z,94.10
2022-10-01T07:58:59.345Z,94.00
2022-10-01T08:04:21.847Z,94.00
2022-10-01T08:09:24.909Z,94.10
2022-10-01T08:14:29.190Z,94.20
2022-10-01T08:19:31.827Z,93.90
2022-10-01T08:24:37.364Z,93.50
2022-10-01T08:29:43.305Z,93.70
2022-10-01T08:34:46.848Z,93.50
2022-10-01T08:39:49.272Z,93.60
2022-10-01T08:44:52.631Z,93.60
2022-10-01T08:50:01.080Z,93.90
2022-10-01T08:55:09.748Z,93.70
2022-10-01T09:00:15.244Z,93.80
2022-10-01T09:05:36.855Z,93.90
2022-10-01T09:10:52.921Z,93.90
2022-10-01T09:16:00.845Z,94.00
2022-10-01T09:21:12.177Z,93.90
2022-10-01T09:26:14.875Z,93.80
2022-10-01T09:31:37.785Z,94.10
2022-10-01T09:37:04.194Z,94.10
2022-10-01T09:42:06.740Z,94.80
2022-10-01T09:47:18.650Z,94.20
2022-10-01T09:52:40.784Z,95.10
2022-10-01T09:58:15.045Z,94.50
2022-10-01T10:03:26.680Z,95.30
2022-10-01T10:08:36.289Z,94.40
2022-10-01T10:13:50.617Z,95.50
2022-10-01T10:18:57.556Z,95.00
2022-10-01T10:24:02.360Z,94.40
2022-10-01T10:29:54.842Z,94.70
2022-10-01T10:35:13.844Z,95.20
2022-10-01T10:40:56.271Z,95.40
2022-10-01T10:51:54.141Z,95.30
2022-10-01T10:57:28.163Z,95.50
2022-10-01T11:02:33.235Z,94.80
2022-10-01T11:07:35.714Z,95.60
2022-10-01T11:12:48.609Z,95.70
2022-10-01T11:18:10.700Z,95.40
2022-10-01T11:23:26.475Z,95.90
2022-10-01T11:28:47.387Z,98.00
2022-10-01T11:34:08.899Z,99.00
2022-10-01T11:39:17.727Z,97.10
2022-10-01T11:44:31.089Z,96.10
2022-10-01T11:49:53.004Z,96.80
2022-10-01T11:55:22.279Z,96.20
2022-10-01T12:00:27.363Z,96.20
2022-10-01T12:05:34.287Z,95.80
2022-10-01T12:10:42.059Z,96.70
2022-10-01T12:16:06.381Z,97.40
2022-10-01T12:21:24.188Z,97.10
2022-10-01T12:26:54.839Z,96.70
2022-10-01T12:32:13.832Z,96.50
2022-10-01T12:37:39.436Z,96.40
2022-10-01T12:43:04.376Z,96.00
2022-10-01T12:48:38.189Z,97.50
2022-10-01T12:54:02.826Z,96.60
2022-10-01T12:59:40.986Z,96.50
2022-10-01T13:05:20.218Z,96.60
2022-10-01T13:10:48.962Z,96.80
2022-10-01T13:16:17.408Z,97.30
2022-10-01T13:21:30.565Z,98.00
2022-10-01T13:26:49.127Z,97.50
2022-10-01T13:31:57.459Z,96.90
2022-10-01T13:37:39.999Z,96.60
2022-10-01T13:42:45.760Z,97.70
2022-10-01T13:47:48.535Z,98.00
2022-10-01T13:53:15.261Z,97.40
2022-10-01T13:58:33.107Z,98.70
2022-10-01T14:03:49.722Z,98.60
2022-10-01T14:09:10.727Z,98.70
2022-10-01T14:14:44.235Z,99.70
2022-10-01T14:19:47.182Z,98.30
2022-10-01T14:24:52.346Z,98.60
2022-10-01T14:30:12.409Z,98.60
2022-10-01T14:35:45.558Z,98.20
2022-10-01T14:40:50.515Z,98.70
2022-10-01T14:46:19.557Z,99.70
2022-10-01T14:51:28.501Z,99.50
2022-10-01T14:56:30.973Z,99.60
2022-10-01T15:01:33.419Z,99.00
2022-10-01T15:06:42.538Z,99.80
2022-10-01T15:11:48.850Z,99.70
2022-10-01T15:16:51.952Z,99.70
2022-10-01T15:22:00.365Z,99.70
2022-10-01T15:27:03.327Z,99.50
2022-10-01T15:32:07.112Z,99.50
2022-10-01T15:37:18.949Z,99.90
2022-10-01T15:42:28.571Z,99.80
2022-10-01T15:47:37.632Z,99.70
2022-10-01T15:52:51.834Z,99.40
2022-10-01T15:58:05.047Z,99.80
2022-10-01T16:03:23.468Z,99.90
2022-10-01T16:08:34.507Z,99.90
2022-10-01T16:13:43.327Z,99.90
2022-10-01T16:18:54.240Z,99.90
2022-10-01T16:23:56.846Z,99.90
2022-10-01T16:29:18.836Z,99.90
2022-10-01T16:34:21.416Z,99.90
2022-10-01T16:39:24.563Z,99.90
2022-10-01T16:44:27.285Z,99.90
2022-10-01T16:49:29.655Z,99.90
2022-10-01T16:54:32.169Z,99.90
2022-10-01T16:59:34.619Z,99.90
2022-10-01T17:04:37.057Z,99.90
2022-10-01T17:09:39.434Z,99.90
2022-10-01T17:14:42.208Z,99.90
2022-10-01T17:19:44.807Z,99.90
2022-10-01T17:24:47.242Z,99.90
2022-10-01T17:29:52.237Z,99.90
2022-10-01T17:34:54.746Z,99.90
2022-10-01T17:39:57.123Z,99.90
2022-10-01T17:44:59.663Z,99.90
2022-10-01T17:50:03.113Z,99.90
2022-10-01T17:55:06.573Z,99.90
2022-10-01T18:00:09.523Z,99.90
2022-10-01T18:05:15.179Z,99.90
2022-10-01T18:10:17.818Z,99.90
2022-10-01T18:15:22.671Z,99.90
2022-10-01T18:20:25.191Z,99.90
2022-10-01T18:25:27.580Z,99.90
2022-10-01T18:30:30.518Z,99.90
2022-10-01T18:35:34.881Z,99.90
2022-10-01T18:40:43.686Z,99.90
2022-10-01T18:46:11.888Z,99.90
2022-10-01T18:51:41.044Z,99.90
2022-10-01T18:56:59.004Z,99.90
2022-10-01T19:02:29.467Z,99.90
2022-10-01T19:07:58.249Z,99.90
2022-10-01T19:13:28.580Z,99.90
2022-10-01T19:18:52.025Z,99.90
2022-10-01T19:24:15.681Z,99.90
2022-10-01T19:29:38.685Z,99.90
2022-10-01T19:34:58.149Z,99.90
2022-10-01T19:40:14.734Z,99.90
2022-10-01T19:46:06.012Z,99.90
2022-10-01T19:51:12.521Z,99.90
2022-10-01T19:56:24.256Z,99.90
2022-10-01T20:01:36.821Z,99.90
2022-10-01T20:06:42.638Z,99.90
2022-10-01T20:12:07.370Z,99.90
2022-10-01T20:17:24.296Z,99.90
2022-10-01T20:22:56.509Z,99.90
2022-10-01T20:28:42.225Z,99.90
2022-10-01T20:34:11.094Z,99.90
2022-10-01T20:39:29.012Z,99.90
2022-10-01T20:44:39.834Z,99.90
2022-10-01T20:50:05.774Z,99.90
2022-10-01T20:55:28.587Z,99.90
2022-10-01T21:00:37.610Z,99.90
2022-10-01T21:05:48.159Z,99.90
2022-10-01T21:10:59.974Z,99.90
2022-10-01T21:16:29.711Z,99.90
2022-10-01T21:27:50.169Z,99.90
2022-10-01T21:33:14.588Z,99.90
2022-10-01T21:38:39.793Z,99.90
2022-10-01T21:44:11.192Z,99.90
2022-10-01T21:49:31.999Z,99.90
2022-10-01T21:55:13.606Z,99.90
2022-10-01T22:00:26.860Z,99.90
2022-10-01T22:05:39.061Z,99.90
2022-10-01T22:10:47.113Z,99.90
2022-10-01T22:15:53.132Z,99.90
2022-10-01T22:20:58.116Z,99.90
2022-10-01T22:26:07.864Z,99.90
2022-10-01T22:31:17.045Z,99.90
2022-10-01T22:36:41.678Z,99.90
2022-10-01T22:42:00.346Z,99.90
2022-10-01T22:47:38.951Z,99.90
2022-10-01T22:53:07.354Z,99.90
2022-10-01T22:58:45.712Z,99.90
2022-10-01T23:04:09.913Z,99.90
2022-10-01T23:09:15.332Z,99.90
2022-10-01T23:14:36.612Z,99.90
2022-10-01T23:19:57.931Z,99.90
2022-10-01T23:25:19.080Z,99.90
2022-10-01T23:30:21.960Z,99.90
2022-10-01T23:35:38.351Z,99.90
2022-10-01T23:40:43.766Z,99.90
2022-10-01T23:45:53.649Z,99.90
2022-10-01T23:51:03.358Z,99.90
2022-10-01T23:56:43.331Z,99.90
